sensor_id;sensor_type;location;lat;lon;timestamp;P1;durP1;ratioP1;P2;durP2;ratioP2
22363;SDS011;11349;53.412;-1.328;2023-06-26T00:00:18;5.13;;;1.35;;
22363;SDS011;11349;53.412;-1.328;2023-06-26T00:02:44;10.60;;;1.63;;
22363;SDS011;11349;53.412;-1.328;2023-06-26T00:05:10;9.65;;;1.55;;
22363;SDS011;11349;53.412;-1.328;2023-06-26T00:07:35;4.68;;;1.40;;
22363;SDS011;11349;53.412;-1.328;2023-06-26T00:10:04;6.30;;;1.48;;
22363;SDS011;11349;53.412;-1.328;2023-06-26T00:12:31;5.45;;;1.75;;
22363;SDS011;11349;53.412;-1.328;2023-06-26T00:14:56;7.40;;;1.63;;
22363;SDS011;11349;53.412;-1.328;2023-06-26T00:17:22;8.35;;;1.70;;
22363;SDS011;11349;53.412;-1.328;2023-06-26T00:19:48;6.07;;;1.80;;
22363;SDS011;11349;53.412;-1.328;2023-06-26T00:22:14;4.13;;;1.50;;
22363;SDS011;11349;53.412;-1.328;2023-06-26T00:24:40;5.18;;;1.55;;
22363;SDS011;11349;53.412;-1.328;2023-06-26T00:27:06;5.15;;;1.45;;
22363;SDS011;11349;53.412;-1.328;2023-06-26T00:29:32;4.60;;;1.63;;
22363;SDS011;11349;53.412;-1.328;2023-06-26T00:31:57;4.38;;;1.50;;
22363;SDS011;11349;53.412;-1.328;2023-06-26T00:34:23;8.85;;;1.83;;
22363;SDS011;11349;53.412;-1.328;2023-06-26T00:36:49;8.90;;;1.70;;
22363;SDS011;11349;53.412;-1.328;2023-06-26T00:39:15;5.10;;;1.63;;
22363;SDS011;11349;53.412;-1.328;2023-06-26T00:41:40;6.75;;;1.75;;
22363;SDS011;11349;53.412;-1.328;2023-06-26T00:44:09;4.18;;;1.30;;
22363;SDS011;11349;53.412;-1.328;2023-06-26T00:46:35;6.88;;;2.10;;
22363;SDS011;11349;53.412;-1.328;2023-06-26T00:49:02;7.05;;;1.40;;
22363;SDS011;11349;53.412;-1.328;2023-06-26T00:51:28;8.27;;;2.05;;
22363;SDS011;11349;53.412;-1.328;2023-06-26T00:53:55;6.97;;;1.70;;
22363;SDS011;11349;53.412;-1.328;2023-06-26T00:56:21;8.13;;;2.10;;
22363;SDS011;11349;53.412;-1.328;2023-06-26T00:58:47;4.50;;;1.38;;
22363;SDS011;11349;53.412;-1.328;2023-06-26T01:01:13;6.78;;;1.25;;
22363;SDS011;11349;53.412;-1.328;2023-06-26T01:03:42;4.13;;;1.30;;
22363;SDS011;11349;53.412;-1.328;2023-06-26T01:06:10;8.60;;;1.70;;
22363;SDS011;11349;53.412;-1.328;2023-06-26T01:08:38;5.70;;;1.90;;
22363;SDS011;11349;53.412;-1.328;2023-06-26T01:11:05;4.45;;;1.38;;
22363;SDS011;11349;53.412;-1.328;2023-06-26T01:13:31;6.78;;;1.45;;
22363;SDS011;11349;53.412;-1.328;2023-06-26T01:15:58;7.30;;;2.53;;
22363;SDS011;11349;53.412;-1.328;2023-06-26T01:18:25;4.13;;;1.33;;
22363;SDS011;11349;53.412;-1.328;2023-06-26T01:20:51;3.08;;;1.20;;
22363;SDS011;11349;53.412;-1.328;2023-06-26T01:26:30;5.00;;;1.40;;
22363;SDS011;11349;53.412;-1.328;2023-06-26T01:29:00;3.50;;;1.02;;
22363;SDS011;11349;53.412;-1.328;2023-06-26T01:31:29;4.65;;;1.30;;
22363;SDS011;11349;53.412;-1.328;2023-06-26T01:33:56;4.15;;;1.15;;
22363;SDS011;11349;53.412;-1.328;2023-06-26T01:36:24;7.28;;;1.65;;
22363;SDS011;11349;53.412;-1.328;2023-06-26T01:38:50;6.07;;;1.55;;
22363;SDS011;11349;53.412;-1.328;2023-06-26T01:41:16;7.30;;;1.95;;
22363;SDS011;11349;53.412;-1.328;2023-06-26T01:46:36;6.00;;;1.25;;
22363;SDS011;11349;53.412;-1.328;2023-06-26T01:54:43;6.32;;;1.60;;
22363;SDS011;11349;53.412;-1.328;2023-06-26T01:57:21;4.25;;;1.33;;
22363;SDS011;11349;53.412;-1.328;2023-06-26T01:59:48;4.00;;;1.52;;
22363;SDS011;11349;53.412;-1.328;2023-06-26T02:02:15;5.35;;;1.48;;
22363;SDS011;11349;53.412;-1.328;2023-06-26T02:04:41;6.07;;;1.50;;
22363;SDS011;11349;53.412;-1.328;2023-06-26T02:07:06;5.03;;;1.27;;
22363;SDS011;11349;53.412;-1.328;2023-06-26T02:09:34;3.88;;;1.15;;
22363;SDS011;11349;53.412;-1.328;2023-06-26T02:12:00;5.13;;;1.45;;
22363;SDS011;11349;53.412;-1.328;2023-06-26T02:14:25;6.15;;;1.45;;
22363;SDS011;11349;53.412;-1.328;2023-06-26T02:16:51;3.72;;;1.50;;
22363;SDS011;11349;53.412;-1.328;2023-06-26T02:19:17;9.07;;;1.25;;
22363;SDS011;11349;53.412;-1.328;2023-06-26T02:21:46;4.38;;;1.20;;
22363;SDS011;11349;53.412;-1.328;2023-06-26T02:24:14;5.47;;;1.73;;
22363;SDS011;11349;53.412;-1.328;2023-06-26T02:26:40;5.30;;;1.55;;
22363;SDS011;11349;53.412;-1.328;2023-06-26T02:29:05;7.60;;;1.70;;
22363;SDS011;11349;53.412;-1.328;2023-06-26T02:31:31;10.82;;;2.72;;
22363;SDS011;11349;53.412;-1.328;2023-06-26T02:33:57;6.30;;;1.38;;
22363;SDS011;11349;53.412;-1.328;2023-06-26T02:36:23;6.88;;;1.67;;
22363;SDS011;11349;53.412;-1.328;2023-06-26T02:38:48;5.18;;;1.60;;
22363;SDS011;11349;53.412;-1.328;2023-06-26T02:41:14;3.83;;;1.40;;
22363;SDS011;11349;53.412;-1.328;2023-06-26T02:43:40;5.90;;;1.80;;
22363;SDS011;11349;53.412;-1.328;2023-06-26T02:46:05;5.00;;;1.80;;
22363;SDS011;11349;53.412;-1.328;2023-06-26T02:48:31;5.95;;;1.75;;
22363;SDS011;11349;53.412;-1.328;2023-06-26T02:50:57;5.25;;;1.67;;
22363;SDS011;11349;53.412;-1.328;2023-06-26T02:53:22;6.13;;;2.35;;
22363;SDS011;11349;53.412;-1.328;2023-06-26T02:55:48;5.38;;;1.63;;
22363;SDS011;11349;53.412;-1.328;2023-06-26T02:58:14;5.32;;;1.60;;
22363;SDS011;11349;53.412;-1.328;2023-06-26T03:00:39;4.93;;;1.58;;
22363;SDS011;11349;53.412;-1.328;2023-06-26T03:03:06;3.53;;;1.55;;
22363;SDS011;11349;53.412;-1.328;2023-06-26T03:05:32;7.05;;;1.85;;
22363;SDS011;11349;53.412;-1.328;2023-06-26T03:07:58;6.40;;;1.80;;
22363;SDS011;11349;53.412;-1.328;2023-06-26T03:10:24;4.72;;;1.70;;
22363;SDS011;11349;53.412;-1.328;2023-06-26T03:12:49;4.18;;;1.42;;
22363;SDS011;11349;53.412;-1.328;2023-06-26T03:15:15;6.57;;;1.50;;
22363;SDS011;11349;53.412;-1.328;2023-06-26T03:17:41;5.80;;;1.98;;
22363;SDS011;11349;53.412;-1.328;2023-06-26T03:20:07;4.85;;;1.70;;
22363;SDS011;11349;53.412;-1.328;2023-06-26T03:22:33;4.53;;;1.50;;
22363;SDS011;11349;53.412;-1.328;2023-06-26T03:24:59;5.45;;;1.83;;
22363;SDS011;11349;53.412;-1.328;2023-06-26T03:27:25;3.97;;;1.33;;
22363;SDS011;11349;53.412;-1.328;2023-06-26T03:29:51;7.80;;;1.90;;
22363;SDS011;11349;53.412;-1.328;2023-06-26T03:32:17;3.97;;;1.50;;
22363;SDS011;11349;53.412;-1.328;2023-06-26T03:34:43;4.60;;;1.50;;
22363;SDS011;11349;53.412;-1.328;2023-06-26T03:37:09;5.82;;;1.88;;
22363;SDS011;11349;53.412;-1.328;2023-06-26T03:39:34;4.18;;;1.60;;
22363;SDS011;11349;53.412;-1.328;2023-06-26T03:42:00;4.30;;;1.60;;
22363;SDS011;11349;53.412;-1.328;2023-06-26T03:44:29;4.75;;;1.60;;
22363;SDS011;11349;53.412;-1.328;2023-06-26T03:46:54;8.05;;;1.67;;
22363;SDS011;11349;53.412;-1.328;2023-06-26T03:49:20;3.65;;;1.40;;
22363;SDS011;11349;53.412;-1.328;2023-06-26T03:51:46;4.40;;;1.60;;
22363;SDS011;11349;53.412;-1.328;2023-06-26T03:54:12;6.60;;;1.58;;
22363;SDS011;11349;53.412;-1.328;2023-06-26T03:56:37;4.75;;;1.50;;
22363;SDS011;11349;53.412;-1.328;2023-06-26T03:59:03;7.53;;;1.70;;
22363;SDS011;11349;53.412;-1.328;2023-06-26T04:01:29;5.40;;;1.75;;
22363;SDS011;11349;53.412;-1.328;2023-06-26T04:03:55;4.22;;;1.50;;
22363;SDS011;11349;53.412;-1.328;2023-06-26T04:06:20;4.85;;;1.80;;
22363;SDS011;11349;53.412;-1.328;2023-06-26T04:08:46;6.22;;;2.72;;
22363;SDS011;11349;53.412;-1.328;2023-06-26T04:11:12;6.05;;;1.75;;
22363;SDS011;11349;53.412;-1.328;2023-06-26T04:13:38;5.18;;;2.08;;
22363;SDS011;11349;53.412;-1.328;2023-06-26T04:16:04;7.78;;;1.98;;
22363;SDS011;11349;53.412;-1.328;2023-06-26T04:18:31;9.25;;;1.80;;
22363;SDS011;11349;53.412;-1.328;2023-06-26T04:21:04;3.60;;;1.70;;
22363;SDS011;11349;53.412;-1.328;2023-06-26T04:23:32;7.07;;;1.98;;
22363;SDS011;11349;53.412;-1.328;2023-06-26T04:25:58;6.55;;;1.65;;
22363;SDS011;11349;53.412;-1.328;2023-06-26T04:28:24;5.45;;;2.15;;
22363;SDS011;11349;53.412;-1.328;2023-06-26T04:30:50;6.53;;;1.77;;
22363;SDS011;11349;53.412;-1.328;2023-06-26T04:33:16;7.93;;;2.30;;
22363;SDS011;11349;53.412;-1.328;2023-06-26T04:35:42;5.90;;;2.15;;
22363;SDS011;11349;53.412;-1.328;2023-06-26T04:38:09;5.53;;;1.80;;
22363;SDS011;11349;53.412;-1.328;2023-06-26T04:40:36;4.93;;;1.85;;
22363;SDS011;11349;53.412;-1.328;2023-06-26T04:43:01;4.35;;;2.15;;
22363;SDS011;11349;53.412;-1.328;2023-06-26T04:45:28;6.60;;;2.35;;
22363;SDS011;11349;53.412;-1.328;2023-06-26T04:47:53;5.60;;;2.72;;
22363;SDS011;11349;53.412;-1.328;2023-06-26T04:50:19;8.93;;;2.40;;
22363;SDS011;11349;53.412;-1.328;2023-06-26T04:52:45;5.18;;;2.22;;
22363;SDS011;11349;53.412;-1.328;2023-06-26T04:55:10;7.25;;;2.28;;
22363;SDS011;11349;53.412;-1.328;2023-06-26T04:57:36;10.20;;;2.53;;
22363;SDS011;11349;53.412;-1.328;2023-06-26T05:00:02;6.78;;;2.55;;
22363;SDS011;11349;53.412;-1.328;2023-06-26T05:02:33;6.43;;;2.70;;
22363;SDS011;11349;53.412;-1.328;2023-06-26T05:05:00;9.85;;;2.17;;
22363;SDS011;11349;53.412;-1.328;2023-06-26T05:07:25;7.50;;;2.40;;
22363;SDS011;11349;53.412;-1.328;2023-06-26T05:09:51;6.75;;;2.28;;
22363;SDS011;11349;53.412;-1.328;2023-06-26T05:12:17;10.80;;;2.53;;
22363;SDS011;11349;53.412;-1.328;2023-06-26T05:14:42;7.68;;;2.10;;
22363;SDS011;11349;53.412;-1.328;2023-06-26T05:17:08;5.03;;;2.22;;
22363;SDS011;11349;53.412;-1.328;2023-06-26T05:19:34;7.65;;;1.80;;
22363;SDS011;11349;53.412;-1.328;2023-06-26T05:22:00;6.20;;;2.15;;
22363;SDS011;11349;53.412;-1.328;2023-06-26T05:24:29;8.40;;;2.28;;
22363;SDS011;11349;53.412;-1.328;2023-06-26T05:26:56;7.20;;;2.35;;
22363;SDS011;11349;53.412;-1.328;2023-06-26T05:29:21;5.95;;;2.05;;
22363;SDS011;11349;53.412;-1.328;2023-06-26T05:31:47;4.63;;;1.83;;
22363;SDS011;11349;53.412;-1.328;2023-06-26T05:34:16;7.32;;;1.67;;
22363;SDS011;11349;53.412;-1.328;2023-06-26T05:36:44;9.63;;;1.90;;
22363;SDS011;11349;53.412;-1.328;2023-06-26T05:39:13;8.40;;;2.28;;
22363;SDS011;11349;53.412;-1.328;2023-06-26T05:41:39;7.68;;;1.88;;
22363;SDS011;11349;53.412;-1.328;2023-06-26T05:44:05;4.95;;;1.65;;
22363;SDS011;11349;53.412;-1.328;2023-06-26T05:46:30;4.82;;;1.50;;
22363;SDS011;11349;53.412;-1.328;2023-06-26T05:48:56;5.93;;;1.58;;
22363;SDS011;11349;53.412;-1.328;2023-06-26T05:51:22;5.75;;;1.77;;
22363;SDS011;11349;53.412;-1.328;2023-06-26T05:53:48;8.25;;;2.00;;
22363;SDS011;11349;53.412;-1.328;2023-06-26T05:56:15;5.90;;;1.80;;
22363;SDS011;11349;53.412;-1.328;2023-06-26T05:58:41;5.03;;;1.40;;
22363;SDS011;11349;53.412;-1.328;2023-06-26T06:01:07;5.35;;;1.90;;
22363;SDS011;11349;53.412;-1.328;2023-06-26T06:03:33;7.85;;;2.10;;
22363;SDS011;11349;53.412;-1.328;2023-06-26T06:05:59;7.32;;;2.08;;
22363;SDS011;11349;53.412;-1.328;2023-06-26T06:08:24;6.30;;;1.65;;
22363;SDS011;11349;53.412;-1.328;2023-06-26T06:10:50;5.82;;;1.83;;
22363;SDS011;11349;53.412;-1.328;2023-06-26T06:13:16;4.95;;;1.70;;
22363;SDS011;11349;53.412;-1.328;2023-06-26T06:15:41;6.45;;;1.83;;
22363;SDS011;11349;53.412;-1.328;2023-06-26T06:18:07;7.75;;;2.03;;
22363;SDS011;11349;53.412;-1.328;2023-06-26T06:20:33;7.00;;;2.15;;
22363;SDS011;11349;53.412;-1.328;2023-06-26T06:22:58;9.30;;;2.05;;
22363;SDS011;11349;53.412;-1.328;2023-06-26T06:25:24;6.43;;;1.70;;
22363;SDS011;11349;53.412;-1.328;2023-06-26T06:27:50;8.32;;;1.85;;
22363;SDS011;11349;53.412;-1.328;2023-06-26T06:30:15;6.03;;;1.50;;
22363;SDS011;11349;53.412;-1.328;2023-06-26T06:32:41;8.93;;;1.90;;
22363;SDS011;11349;53.412;-1.328;2023-06-26T06:35:07;7.88;;;2.05;;
22363;SDS011;11349;53.412;-1.328;2023-06-26T06:37:35;7.10;;;2.13;;
22363;SDS011;11349;53.412;-1.328;2023-06-26T06:40:02;4.90;;;1.58;;
22363;SDS011;11349;53.412;-1.328;2023-06-26T06:42:30;7.35;;;2.03;;
22363;SDS011;11349;53.412;-1.328;2023-06-26T06:44:57;8.13;;;1.80;;
22363;SDS011;11349;53.412;-1.328;2023-06-26T06:47:22;8.18;;;2.58;;
22363;SDS011;11349;53.412;-1.328;2023-06-26T06:49:48;6.72;;;1.63;;
22363;SDS011;11349;53.412;-1.328;2023-06-26T06:52:14;7.35;;;1.90;;
22363;SDS011;11349;53.412;-1.328;2023-06-26T06:54:56;6.50;;;1.90;;
22363;SDS011;11349;53.412;-1.328;2023-06-26T06:57:30;6.10;;;1.80;;
22363;SDS011;11349;53.412;-1.328;2023-06-26T06:59:56;7.35;;;1.70;;
22363;SDS011;11349;53.412;-1.328;2023-06-26T07:02:21;4.65;;;1.70;;
22363;SDS011;11349;53.412;-1.328;2023-06-26T07:04:47;4.90;;;1.92;;
22363;SDS011;11349;53.412;-1.328;2023-06-26T07:07:13;14.85;;;2.58;;
22363;SDS011;11349;53.412;-1.328;2023-06-26T07:09:39;6.88;;;1.50;;
22363;SDS011;11349;53.412;-1.328;2023-06-26T07:12:04;9.20;;;2.25;;
22363;SDS011;11349;53.412;-1.328;2023-06-26T07:14:30;6.97;;;2.28;;
22363;SDS011;11349;53.412;-1.328;2023-06-26T07:16:56;6.50;;;1.70;;
22363;SDS011;11349;53.412;-1.328;2023-06-26T07:19:22;6.18;;;1.75;;
22363;SDS011;11349;53.412;-1.328;2023-06-26T07:21:47;8.88;;;1.63;;
22363;SDS011;11349;53.412;-1.328;2023-06-26T07:24:13;4.70;;;1.90;;
22363;SDS011;11349;53.412;-1.328;2023-06-26T07:26:39;6.40;;;1.85;;
22363;SDS011;11349;53.412;-1.328;2023-06-26T07:29:04;7.05;;;2.10;;
22363;SDS011;11349;53.412;-1.328;2023-06-26T07:31:30;6.20;;;1.52;;
22363;SDS011;11349;53.412;-1.328;2023-06-26T07:33:56;6.55;;;1.80;;
22363;SDS011;11349;53.412;-1.328;2023-06-26T07:36:22;4.95;;;1.30;;
22363;SDS011;11349;53.412;-1.328;2023-06-26T07:38:47;8.52;;;1.80;;
22363;SDS011;11349;53.412;-1.328;2023-06-26T07:41:13;6.90;;;1.55;;
22363;SDS011;11349;53.412;-1.328;2023-06-26T07:43:39;7.35;;;1.48;;
22363;SDS011;11349;53.412;-1.328;2023-06-26T07:46:04;3.92;;;1.23;;
22363;SDS011;11349;53.412;-1.328;2023-06-26T07:48:30;3.03;;;1.02;;
22363;SDS011;11349;53.412;-1.328;2023-06-26T07:50:56;3.65;;;1.40;;
22363;SDS011;11349;53.412;-1.328;2023-06-26T07:53:21;5.95;;;1.40;;
22363;SDS011;11349;53.412;-1.328;2023-06-26T07:55:47;4.95;;;1.70;;
22363;SDS011;11349;53.412;-1.328;2023-06-26T07:58:13;6.53;;;1.25;;
22363;SDS011;11349;53.412;-1.328;2023-06-26T08:00:39;5.00;;;1.40;;
22363;SDS011;11349;53.412;-1.328;2023-06-26T08:03:08;4.45;;;1.30;;
22363;SDS011;11349;53.412;-1.328;2023-06-26T08:05:34;3.67;;;1.13;;
22363;SDS011;11349;53.412;-1.328;2023-06-26T08:08:00;5.18;;;1.15;;
22363;SDS011;11349;53.412;-1.328;2023-06-26T08:10:27;3.53;;;1.00;;
22363;SDS011;11349;53.412;-1.328;2023-06-26T08:12:53;4.82;;;1.20;;
22363;SDS011;11349;53.412;-1.328;2023-06-26T08:15:20;5.00;;;1.30;;
22363;SDS011;11349;53.412;-1.328;2023-06-26T08:17:46;8.32;;;1.73;;
22363;SDS011;11349;53.412;-1.328;2023-06-26T08:20:12;7.00;;;1.42;;
22363;SDS011;11349;53.412;-1.328;2023-06-26T08:22:38;6.28;;;1.27;;
22363;SDS011;11349;53.412;-1.328;2023-06-26T08:25:04;6.90;;;1.30;;
22363;SDS011;11349;53.412;-1.328;2023-06-26T08:27:31;5.15;;;1.20;;
22363;SDS011;11349;53.412;-1.328;2023-06-26T08:29:57;3.13;;;0.95;;
22363;SDS011;11349;53.412;-1.328;2023-06-26T08:32:23;5.03;;;1.45;;
22363;SDS011;11349;53.412;-1.328;2023-06-26T08:34:50;3.33;;;1.10;;
22363;SDS011;11349;53.412;-1.328;2023-06-26T08:37:16;3.58;;;1.08;;
22363;SDS011;11349;53.412;-1.328;2023-06-26T08:39:41;4.68;;;0.98;;
22363;SDS011;11349;53.412;-1.328;2023-06-26T08:42:07;5.85;;;1.38;;
22363;SDS011;11349;53.412;-1.328;2023-06-26T08:44:33;7.03;;;1.52;;
22363;SDS011;11349;53.412;-1.328;2023-06-26T08:47:01;15.07;;;2.38;;
22363;SDS011;11349;53.412;-1.328;2023-06-26T08:52:02;4.90;;;1.17;;
22363;SDS011;11349;53.412;-1.328;2023-06-26T08:54:36;7.25;;;1.52;;
22363;SDS011;11349;53.412;-1.328;2023-06-26T08:57:08;4.18;;;1.13;;
22363;SDS011;11349;53.412;-1.328;2023-06-26T08:59:33;7.75;;;2.10;;
22363;SDS011;11349;53.412;-1.328;2023-06-26T09:01:59;4.10;;;1.10;;
22363;SDS011;11349;53.412;-1.328;2023-06-26T09:04:26;3.92;;;1.08;;
22363;SDS011;11349;53.412;-1.328;2023-06-26T09:06:52;4.32;;;1.00;;
22363;SDS011;11349;53.412;-1.328;2023-06-26T09:09:17;3.33;;;1.00;;
22363;SDS011;11349;53.412;-1.328;2023-06-26T09:11:43;4.15;;;1.20;;
22363;SDS011;11349;53.412;-1.328;2023-06-26T09:14:09;6.10;;;1.27;;
22363;SDS011;11349;53.412;-1.328;2023-06-26T09:16:41;4.10;;;1.02;;
22363;SDS011;11349;53.412;-1.328;2023-06-26T09:19:10;5.20;;;1.70;;
22363;SDS011;11349;53.412;-1.328;2023-06-26T09:21:37;4.30;;;1.10;;
22363;SDS011;11349;53.412;-1.328;2023-06-26T09:24:07;6.03;;;1.40;;
22363;SDS011;11349;53.412;-1.328;2023-06-26T09:26:35;7.40;;;2.95;;
22363;SDS011;11349;53.412;-1.328;2023-06-26T09:29:02;8.45;;;1.83;;
22363;SDS011;11349;53.412;-1.328;2023-06-26T09:31:29;8.80;;;1.23;;
22363;SDS011;11349;53.412;-1.328;2023-06-26T09:33:57;6.22;;;1.35;;
22363;SDS011;11349;53.412;-1.328;2023-06-26T09:36:26;13.68;;;2.10;;
22363;SDS011;11349;53.412;-1.328;2023-06-26T09:38:53;4.85;;;1.40;;
22363;SDS011;11349;53.412;-1.328;2023-06-26T09:41:19;6.55;;;1.55;;
22363;SDS011;11349;53.412;-1.328;2023-06-26T09:43:46;5.15;;;1.27;;
22363;SDS011;11349;53.412;-1.328;2023-06-26T09:46:25;5.72;;;1.20;;
22363;SDS011;11349;53.412;-1.328;2023-06-26T09:49:07;4.30;;;1.00;;
22363;SDS011;11349;53.412;-1.328;2023-06-26T09:51:36;6.07;;;1.67;;
22363;SDS011;11349;53.412;-1.328;2023-06-26T09:54:03;5.90;;;1.40;;
22363;SDS011;11349;53.412;-1.328;2023-06-26T09:56:30;7.05;;;1.27;;
22363;SDS011;11349;53.412;-1.328;2023-06-26T09:58:58;5.30;;;1.20;;
22363;SDS011;11349;53.412;-1.328;2023-06-26T10:01:28;5.22;;;1.10;;
22363;SDS011;11349;53.412;-1.328;2023-06-26T10:03:55;6.45;;;1.40;;
22363;SDS011;11349;53.412;-1.328;2023-06-26T10:06:24;7.88;;;1.45;;
22363;SDS011;11349;53.412;-1.328;2023-06-26T10:08:52;4.43;;;1.15;;
22363;SDS011;11349;53.412;-1.328;2023-06-26T10:11:20;8.30;;;1.55;;
22363;SDS011;11349;53.412;-1.328;2023-06-26T10:13:47;6.20;;;1.50;;
22363;SDS011;11349;53.412;-1.328;2023-06-26T10:16:18;5.43;;;1.33;;
22363;SDS011;11349;53.412;-1.328;2023-06-26T10:18:56;5.35;;;1.27;;
22363;SDS011;11349;53.412;-1.328;2023-06-26T10:21:28;6.43;;;1.20;;
22363;SDS011;11349;53.412;-1.328;2023-06-26T10:23:57;4.03;;;1.00;;
22363;SDS011;11349;53.412;-1.328;2023-06-26T10:26:24;2.92;;;0.90;;
22363;SDS011;11349;53.412;-1.328;2023-06-26T10:28:52;5.88;;;1.23;;
22363;SDS011;11349;53.412;-1.328;2023-06-26T10:31:20;4.88;;;1.02;;
22363;SDS011;11349;53.412;-1.328;2023-06-26T10:33:48;5.65;;;1.20;;
22363;SDS011;11349;53.412;-1.328;2023-06-26T10:36:18;4.53;;;0.75;;
22363;SDS011;11349;53.412;-1.328;2023-06-26T10:38:52;4.25;;;1.00;;
22363;SDS011;11349;53.412;-1.328;2023-06-26T10:41:22;3.88;;;0.90;;
22363;SDS011;11349;53.412;-1.328;2023-06-26T10:46:24;4.18;;;0.90;;
22363;SDS011;11349;53.412;-1.328;2023-06-26T10:48:59;3.42;;;0.80;;
22363;SDS011;11349;53.412;-1.328;2023-06-26T10:51:28;4.97;;;0.95;;
22363;SDS011;11349;53.412;-1.328;2023-06-26T10:53:57;4.35;;;1.05;;
22363;SDS011;11349;53.412;-1.328;2023-06-26T10:59:18;8.93;;;1.30;;
22363;SDS011;11349;53.412;-1.328;2023-06-26T11:02:06;3.85;;;1.02;;
22363;SDS011;11349;53.412;-1.328;2023-06-26T11:04:43;5.15;;;1.10;;
22363;SDS011;11349;53.412;-1.328;2023-06-26T11:07:14;7.07;;;1.13;;
22363;SDS011;11349;53.412;-1.328;2023-06-26T11:09:54;6.38;;;1.23;;
22363;SDS011;11349;53.412;-1.328;2023-06-26T11:12:34;3.45;;;0.85;;
22363;SDS011;11349;53.412;-1.328;2023-06-26T11:15:00;3.53;;;0.98;;
22363;SDS011;11349;53.412;-1.328;2023-06-26T11:17:26;3.70;;;1.27;;
22363;SDS011;11349;53.412;-1.328;2023-06-26T11:19:53;2.83;;;0.85;;
22363;SDS011;11349;53.412;-1.328;2023-06-26T11:22:20;4.70;;;1.30;;
22363;SDS011;11349;53.412;-1.328;2023-06-26T11:24:49;7.55;;;1.27;;
22363;SDS011;11349;53.412;-1.328;2023-06-26T11:27:18;5.78;;;2.00;;
22363;SDS011;11349;53.412;-1.328;2023-06-26T11:29:48;7.10;;;1.40;;
22363;SDS011;11349;53.412;-1.328;2023-06-26T11:32:14;5.82;;;1.00;;
22363;SDS011;11349;53.412;-1.328;2023-06-26T11:34:40;5.88;;;1.40;;
22363;SDS011;11349;53.412;-1.328;2023-06-26T11:37:08;6.90;;;1.50;;
22363;SDS011;11349;53.412;-1.328;2023-06-26T11:39:34;4.10;;;1.20;;
22363;SDS011;11349;53.412;-1.328;2023-06-26T11:42:00;6.32;;;1.40;;
22363;SDS011;11349;53.412;-1.328;2023-06-26T11:44:30;4.40;;;0.75;;
22363;SDS011;11349;53.412;-1.328;2023-06-26T11:46:56;7.63;;;1.45;;
22363;SDS011;11349;53.412;-1.328;2023-06-26T11:49:23;6.38;;;1.10;;
22363;SDS011;11349;53.412;-1.328;2023-06-26T11:51:50;4.82;;;1.70;;
22363;SDS011;11349;53.412;-1.328;2023-06-26T11:54:23;8.75;;;1.65;;
22363;SDS011;11349;53.412;-1.328;2023-06-26T11:56:57;5.38;;;1.10;;
22363;SDS011;11349;53.412;-1.328;2023-06-26T11:59:24;3.20;;;1.20;;
22363;SDS011;11349;53.412;-1.328;2023-06-26T12:01:56;5.93;;;1.92;;
22363;SDS011;11349;53.412;-1.328;2023-06-26T12:04:22;5.95;;;1.30;;
22363;SDS011;11349;53.412;-1.328;2023-06-26T12:06:49;3.45;;;1.17;;
22363;SDS011;11349;53.412;-1.328;2023-06-26T12:09:18;4.93;;;1.35;;
22363;SDS011;11349;53.412;-1.328;2023-06-26T12:11:45;7.97;;;1.70;;
22363;SDS011;11349;53.412;-1.328;2023-06-26T12:14:14;6.03;;;1.42;;
22363;SDS011;11349;53.412;-1.328;2023-06-26T12:16:41;7.28;;;1.50;;
22363;SDS011;11349;53.412;-1.328;2023-06-26T12:19:07;7.93;;;1.60;;
22363;SDS011;11349;53.412;-1.328;2023-06-26T12:24:02;6.78;;;1.73;;
22363;SDS011;11349;53.412;-1.328;2023-06-26T12:26:29;3.67;;;1.00;;
22363;SDS011;11349;53.412;-1.328;2023-06-26T12:29:02;4.03;;;1.10;;
22363;SDS011;11349;53.412;-1.328;2023-06-26T12:31:29;9.45;;;2.55;;
22363;SDS011;11349;53.412;-1.328;2023-06-26T12:33:57;3.90;;;1.05;;
22363;SDS011;11349;53.412;-1.328;2023-06-26T12:36:23;5.70;;;1.08;;
22363;SDS011;11349;53.412;-1.328;2023-06-26T12:38:49;4.53;;;1.30;;
22363;SDS011;11349;53.412;-1.328;2023-06-26T12:41:15;4.05;;;1.05;;
22363;SDS011;11349;53.412;-1.328;2023-06-26T12:43:44;6.20;;;1.42;;
22363;SDS011;11349;53.412;-1.328;2023-06-26T12:46:09;4.00;;;0.90;;
22363;SDS011;11349;53.412;-1.328;2023-06-26T12:48:39;6.00;;;1.67;;
22363;SDS011;11349;53.412;-1.328;2023-06-26T12:51:12;7.32;;;1.30;;
22363;SDS011;11349;53.412;-1.328;2023-06-26T12:53:38;5.63;;;1.20;;
22363;SDS011;11349;53.412;-1.328;2023-06-26T12:56:07;7.53;;;1.55;;
22363;SDS011;11349;53.412;-1.328;2023-06-26T12:58:34;4.65;;;1.20;;
22363;SDS011;11349;53.412;-1.328;2023-06-26T13:01:05;5.40;;;1.15;;
22363;SDS011;11349;53.412;-1.328;2023-06-26T13:03:42;7.65;;;1.20;;
22363;SDS011;11349;53.412;-1.328;2023-06-26T13:06:08;9.82;;;1.75;;
22363;SDS011;11349;53.412;-1.328;2023-06-26T13:08:34;10.50;;;1.70;;
22363;SDS011;11349;53.412;-1.328;2023-06-26T13:11:00;7.03;;;1.30;;
22363;SDS011;11349;53.412;-1.328;2023-06-26T13:13:26;4.75;;;1.20;;
22363;SDS011;11349;53.412;-1.328;2023-06-26T13:15:52;4.25;;;1.02;;
22363;SDS011;11349;53.412;-1.328;2023-06-26T13:18:18;3.75;;;0.90;;
22363;SDS011;11349;53.412;-1.328;2023-06-26T13:20:43;4.32;;;1.20;;
22363;SDS011;11349;53.412;-1.328;2023-06-26T13:23:09;5.43;;;1.17;;
22363;SDS011;11349;53.412;-1.328;2023-06-26T13:25:35;2.63;;;1.00;;
22363;SDS011;11349;53.412;-1.328;2023-06-26T13:28:00;3.58;;;1.45;;
22363;SDS011;11349;53.412;-1.328;2023-06-26T13:30:26;7.78;;;1.25;;
22363;SDS011;11349;53.412;-1.328;2023-06-26T13:32:52;4.22;;;1.33;;
22363;SDS011;11349;53.412;-1.328;2023-06-26T13:35:17;3.78;;;0.98;;
22363;SDS011;11349;53.412;-1.328;2023-06-26T13:37:43;4.10;;;0.98;;
22363;SDS011;11349;53.412;-1.328;2023-06-26T13:40:09;3.45;;;0.80;;
22363;SDS011;11349;53.412;-1.328;2023-06-26T13:42:35;2.10;;;0.63;;
22363;SDS011;11349;53.412;-1.328;2023-06-26T13:45:01;3.45;;;0.60;;
22363;SDS011;11349;53.412;-1.328;2023-06-26T13:47:28;4.70;;;0.77;;
22363;SDS011;11349;53.412;-1.328;2023-06-26T13:49:53;5.07;;;0.98;;
22363;SDS011;11349;53.412;-1.328;2023-06-26T13:52:19;3.05;;;0.60;;
22363;SDS011;11349;53.412;-1.328;2023-06-26T13:54:45;3.88;;;0.63;;
22363;SDS011;11349;53.412;-1.328;2023-06-26T13:57:11;1.95;;;0.68;;
22363;SDS011;11349;53.412;-1.328;2023-06-26T13:59:37;3.97;;;0.60;;
22363;SDS011;11349;53.412;-1.328;2023-06-26T14:02:07;2.78;;;0.82;;
22363;SDS011;11349;53.412;-1.328;2023-06-26T14:04:33;3.63;;;1.00;;
22363;SDS011;11349;53.412;-1.328;2023-06-26T14:06:59;4.38;;;0.85;;
22363;SDS011;11349;53.412;-1.328;2023-06-26T14:09:25;5.18;;;0.98;;
22363;SDS011;11349;53.412;-1.328;2023-06-26T14:11:50;2.72;;;0.95;;
22363;SDS011;11349;53.412;-1.328;2023-06-26T14:14:16;3.70;;;0.90;;
22363;SDS011;11349;53.412;-1.328;2023-06-26T14:16:42;2.63;;;0.80;;
22363;SDS011;11349;53.412;-1.328;2023-06-26T14:19:08;7.40;;;1.10;;
22363;SDS011;11349;53.412;-1.328;2023-06-26T14:21:39;5.97;;;1.10;;
22363;SDS011;11349;53.412;-1.328;2023-06-26T14:24:05;4.50;;;1.00;;
22363;SDS011;11349;53.412;-1.328;2023-06-26T14:26:31;2.03;;;0.60;;
22363;SDS011;11349;53.412;-1.328;2023-06-26T14:28:58;4.90;;;1.05;;
22363;SDS011;11349;53.412;-1.328;2023-06-26T14:31:24;2.65;;;0.90;;
22363;SDS011;11349;53.412;-1.328;2023-06-26T14:33:50;2.80;;;0.60;;
22363;SDS011;11349;53.412;-1.328;2023-06-26T14:36:16;4.45;;;0.80;;
22363;SDS011;11349;53.412;-1.328;2023-06-26T14:38:42;3.67;;;1.13;;
22363;SDS011;11349;53.412;-1.328;2023-06-26T14:41:07;4.25;;;0.80;;
22363;SDS011;11349;53.412;-1.328;2023-06-26T14:43:33;2.97;;;0.80;;
22363;SDS011;11349;53.412;-1.328;2023-06-26T14:45:59;3.83;;;1.02;;
22363;SDS011;11349;53.412;-1.328;2023-06-26T14:48:24;4.53;;;0.63;;
22363;SDS011;11349;53.412;-1.328;2023-06-26T14:50:50;3.38;;;0.82;;
22363;SDS011;11349;53.412;-1.328;2023-06-26T14:53:16;2.90;;;0.50;;